sensor_id;sensor_type;location;lat;lon;timestamp;P1;durP1;ratioP1;P2;durP2;ratioP2
59824;SDS011;45703;50.898;6.054;2023-09-18T00:02:23;8.43;;;4.22;;
59824;SDS011;45703;50.898;6.054;2023-09-18T00:04:49;9.50;;;4.32;;
59824;SDS011;45703;50.898;6.054;2023-09-18T00:07:14;7.95;;;4.60;;
59824;SDS011;45703;50.898;6.054;2023-09-18T00:09:39;10.07;;;4.85;;
59824;SDS011;45703;50.898;6.054;2023-09-18T00:12:05;8.07;;;4.50;;
59824;SDS011;45703;50.898;6.054;2023-09-18T00:14:31;8.73;;;4.57;;
59824;SDS011;45703;50.898;6.054;2023-09-18T00:16:57;10.60;;;4.75;;
59824;SDS011;45703;50.898;6.054;2023-09-18T00:19:22;11.43;;;4.80;;
59824;SDS011;45703;50.898;6.054;2023-09-18T00:21:49;9.95;;;4.70;;
59824;SDS011;45703;50.898;6.054;2023-09-18T00:24:14;9.75;;;5.07;;
59824;SDS011;45703;50.898;6.054;2023-09-18T00:26:40;9.50;;;5.05;;
59824;SDS011;45703;50.898;6.054;2023-09-18T00:29:05;9.27;;;4.80;;
59824;SDS011;45703;50.898;6.054;2023-09-18T00:31:30;7.97;;;4.53;;
59824;SDS011;45703;50.898;6.054;2023-09-18T00:33:56;9.48;;;4.75;;
59824;SDS011;45703;50.898;6.054;2023-09-18T00:36:21;8.80;;;4.55;;
59824;SDS011;45703;50.898;6.054;2023-09-18T00:38:46;9.38;;;4.65;;
59824;SDS011;45703;50.898;6.054;2023-09-18T00:41:12;9.43;;;4.75;;
59824;SDS011;45703;50.898;6.054;2023-09-18T00:43:37;10.70;;;4.88;;
59824;SDS011;45703;50.898;6.054;2023-09-18T00:46:03;9.23;;;4.90;;
59824;SDS011;45703;50.898;6.054;2023-09-18T00:48:28;8.35;;;4.55;;
59824;SDS011;45703;50.898;6.054;2023-09-18T00:50:54;8.98;;;4.32;;
59824;SDS011;45703;50.898;6.054;2023-09-18T00:53:21;9.57;;;4.95;;
59824;SDS011;45703;50.898;6.054;2023-09-18T00:55:48;9.10;;;4.93;;
59824;SDS011;45703;50.898;6.054;2023-09-18T00:58:18;9.35;;;4.72;;
59824;SDS011;45703;50.898;6.054;2023-09-18T01:00:44;8.85;;;4.63;;
59824;SDS011;45703;50.898;6.054;2023-09-18T01:03:09;10.40;;;4.90;;
59824;SDS011;45703;50.898;6.054;2023-09-18T01:05:36;9.27;;;4.55;;
59824;SDS011;45703;50.898;6.054;2023-09-18T01:08:01;9.77;;;4.82;;
59824;SDS011;45703;50.898;6.054;2023-09-18T01:10:34;9.95;;;4.72;;
59824;SDS011;45703;50.898;6.054;2023-09-18T01:13:10;9.65;;;4.80;;
59824;SDS011;45703;50.898;6.054;2023-09-18T01:15:43;8.63;;;4.10;;
59824;SDS011;45703;50.898;6.054;2023-09-18T01:18:13;9.38;;;4.25;;
59824;SDS011;45703;50.898;6.054;2023-09-18T01:20:39;8.20;;;4.30;;
59824;SDS011;45703;50.898;6.054;2023-09-18T01:23:04;9.98;;;4.75;;
59824;SDS011;45703;50.898;6.054;2023-09-18T01:25:30;9.20;;;4.63;;
59824;SDS011;45703;50.898;6.054;2023-09-18T01:27:57;8.88;;;4.35;;
59824;SDS011;45703;50.898;6.054;2023-09-18T01:30:22;9.27;;;4.60;;
59824;SDS011;45703;50.898;6.054;2023-09-18T01:32:49;8.65;;;4.43;;
59824;SDS011;45703;50.898;6.054;2023-09-18T01:35:18;8.77;;;4.68;;
59824;SDS011;45703;50.898;6.054;2023-09-18T01:37:50;8.90;;;4.15;;
59824;SDS011;45703;50.898;6.054;2023-09-18T01:40:18;9.68;;;4.75;;
59824;SDS011;45703;50.898;6.054;2023-09-18T01:42:44;9.45;;;4.45;;
59824;SDS011;45703;50.898;6.054;2023-09-18T01:45:11;9.40;;;4.50;;
59824;SDS011;45703;50.898;6.054;2023-09-18T01:47:36;9.52;;;4.70;;
59824;SDS011;45703;50.898;6.054;2023-09-18T01:50:02;10.95;;;5.25;;
59824;SDS011;45703;50.898;6.054;2023-09-18T01:52:31;9.93;;;4.53;;
59824;SDS011;45703;50.898;6.054;2023-09-18T01:54:57;9.88;;;5.07;;
59824;SDS011;45703;50.898;6.054;2023-09-18T01:57:23;10.32;;;4.93;;
59824;SDS011;45703;50.898;6.054;2023-09-18T01:59:48;9.70;;;4.95;;
59824;SDS011;45703;50.898;6.054;2023-09-18T02:02:13;9.23;;;4.88;;
59824;SDS011;45703;50.898;6.054;2023-09-18T02:04:39;8.82;;;4.30;;
59824;SDS011;45703;50.898;6.054;2023-09-18T02:07:05;9.20;;;4.68;;
59824;SDS011;45703;50.898;6.054;2023-09-18T02:09:31;10.65;;;5.18;;
59824;SDS011;45703;50.898;6.054;2023-09-18T02:11:56;8.75;;;4.65;;
59824;SDS011;45703;50.898;6.054;2023-09-18T02:14:22;9.65;;;4.88;;
59824;SDS011;45703;50.898;6.054;2023-09-18T02:16:47;9.60;;;5.03;;
59824;SDS011;45703;50.898;6.054;2023-09-18T02:19:13;7.85;;;4.50;;
59824;SDS011;45703;50.898;6.054;2023-09-18T02:21:39;10.77;;;4.90;;
59824;SDS011;45703;50.898;6.054;2023-09-18T02:24:05;10.95;;;4.65;;
59824;SDS011;45703;50.898;6.054;2023-09-18T02:26:31;9.75;;;4.68;;
59824;SDS011;45703;50.898;6.054;2023-09-18T02:29:02;9.07;;;4.13;;
59824;SDS011;45703;50.898;6.054;2023-09-18T02:31:32;11.13;;;4.57;;
59824;SDS011;45703;50.898;6.054;2023-09-18T02:34:00;9.77;;;4.50;;
59824;SDS011;45703;50.898;6.054;2023-09-18T02:36:28;10.30;;;4.07;;
59824;SDS011;45703;50.898;6.054;2023-09-18T02:38:56;9.10;;;4.10;;
59824;SDS011;45703;50.898;6.054;2023-09-18T02:41:21;10.73;;;4.53;;
59824;SDS011;45703;50.898;6.054;2023-09-18T02:43:47;9.13;;;3.80;;
59824;SDS011;45703;50.898;6.054;2023-09-18T02:46:17;9.00;;;4.30;;
59824;SDS011;45703;50.898;6.054;2023-09-18T02:48:43;8.48;;;3.97;;
59824;SDS011;45703;50.898;6.054;2023-09-18T02:51:08;9.18;;;4.32;;
59824;SDS011;45703;50.898;6.054;2023-09-18T02:53:34;8.65;;;4.10;;
59824;SDS011;45703;50.898;6.054;2023-09-18T02:56:02;12.18;;;4.30;;
59824;SDS011;45703;50.898;6.054;2023-09-18T02:58:27;13.10;;;4.35;;
59824;SDS011;45703;50.898;6.054;2023-09-18T03:00:55;11.98;;;4.47;;
59824;SDS011;45703;50.898;6.054;2023-09-18T03:03:25;10.32;;;4.22;;
59824;SDS011;45703;50.898;6.054;2023-09-18T03:05:51;12.93;;;4.13;;
59824;SDS011;45703;50.898;6.054;2023-09-18T03:08:16;11.68;;;3.97;;
59824;SDS011;45703;50.898;6.054;2023-09-18T03:10:42;11.38;;;3.78;;
59824;SDS011;45703;50.898;6.054;2023-09-18T03:13:09;9.65;;;3.55;;
59824;SDS011;45703;50.898;6.054;2023-09-18T03:15:36;9.68;;;3.50;;
59824;SDS011;45703;50.898;6.054;2023-09-18T03:18:02;10.13;;;3.53;;
59824;SDS011;45703;50.898;6.054;2023-09-18T03:20:29;9.02;;;3.33;;
59824;SDS011;45703;50.898;6.054;2023-09-18T03:22:59;8.82;;;3.35;;
59824;SDS011;45703;50.898;6.054;2023-09-18T03:25:27;8.23;;;3.38;;
59824;SDS011;45703;50.898;6.054;2023-09-18T03:27:54;8.73;;;2.88;;
59824;SDS011;45703;50.898;6.054;2023-09-18T03:30:23;9.60;;;3.28;;
59824;SDS011;45703;50.898;6.054;2023-09-18T03:32:52;8.10;;;3.05;;
59824;SDS011;45703;50.898;6.054;2023-09-18T03:35:20;11.48;;;2.83;;
59824;SDS011;45703;50.898;6.054;2023-09-18T03:37:49;8.55;;;2.90;;
59824;SDS011;45703;50.898;6.054;2023-09-18T03:40:16;10.53;;;3.80;;
59824;SDS011;45703;50.898;6.054;2023-09-18T03:42:47;9.70;;;3.10;;
59824;SDS011;45703;50.898;6.054;2023-09-18T03:45:12;8.27;;;2.85;;
59824;SDS011;45703;50.898;6.054;2023-09-18T03:48:08;8.15;;;2.45;;
59824;SDS011;45703;50.898;6.054;2023-09-18T03:50:34;8.07;;;2.97;;
59824;SDS011;45703;50.898;6.054;2023-09-18T03:52:59;8.32;;;2.83;;
59824;SDS011;45703;50.898;6.054;2023-09-18T03:55:25;9.00;;;3.50;;
59824;SDS011;45703;50.898;6.054;2023-09-18T03:57:51;6.82;;;2.70;;
59824;SDS011;45703;50.898;6.054;2023-09-18T04:00:21;10.18;;;3.25;;
59824;SDS011;45703;50.898;6.054;2023-09-18T04:02:48;7.40;;;2.60;;
59824;SDS011;45703;50.898;6.054;2023-09-18T04:05:13;10.23;;;3.25;;
59824;SDS011;45703;50.898;6.054;2023-09-18T04:07:39;9.38;;;3.15;;
59824;SDS011;45703;50.898;6.054;2023-09-18T04:10:12;6.75;;;2.50;;
59824;SDS011;45703;50.898;6.054;2023-09-18T04:12:43;8.30;;;2.75;;
59824;SDS011;45703;50.898;6.054;2023-09-18T04:15:12;5.70;;;2.50;;
59824;SDS011;45703;50.898;6.054;2023-09-18T04:17:45;8.43;;;2.40;;
59824;SDS011;45703;50.898;6.054;2023-09-18T04:20:13;7.70;;;2.40;;
59824;SDS011;45703;50.898;6.054;2023-09-18T04:22:45;7.45;;;2.30;;
59824;SDS011;45703;50.898;6.054;2023-09-18T04:25:15;6.40;;;2.00;;
59824;SDS011;45703;50.898;6.054;2023-09-18T04:27:41;6.97;;;2.00;;
59824;SDS011;45703;50.898;6.054;2023-09-18T04:30:16;8.25;;;2.05;;
59824;SDS011;45703;50.898;6.054;2023-09-18T04:32:43;6.30;;;2.20;;
59824;SDS011;45703;50.898;6.054;2023-09-18T04:35:11;7.10;;;1.90;;
59824;SDS011;45703;50.898;6.054;2023-09-18T04:37:38;6.30;;;1.65;;
59824;SDS011;45703;50.898;6.054;2023-09-18T04:40:06;6.32;;;1.60;;
59824;SDS011;45703;50.898;6.054;2023-09-18T04:42:38;5.60;;;1.73;;
59824;SDS011;45703;50.898;6.054;2023-09-18T04:45:05;7.07;;;1.63;;
59824;SDS011;45703;50.898;6.054;2023-09-18T04:47:30;6.90;;;1.60;;
59824;SDS011;45703;50.898;6.054;2023-09-18T04:49:56;5.63;;;1.77;;
59824;SDS011;45703;50.898;6.054;2023-09-18T04:52:21;6.47;;;1.70;;
59824;SDS011;45703;50.898;6.054;2023-09-18T04:54:47;5.82;;;1.70;;
59824;SDS011;45703;50.898;6.054;2023-09-18T04:57:12;5.43;;;1.55;;
59824;SDS011;45703;50.898;6.054;2023-09-18T04:59:37;5.55;;;1.67;;
59824;SDS011;45703;50.898;6.054;2023-09-18T05:02:03;5.90;;;1.63;;
59824;SDS011;45703;50.898;6.054;2023-09-18T05:04:29;6.10;;;1.77;;
59824;SDS011;45703;50.898;6.054;2023-09-18T05:06:55;6.70;;;1.73;;
59824;SDS011;45703;50.898;6.054;2023-09-18T05:09:21;5.75;;;1.40;;
59824;SDS011;45703;50.898;6.054;2023-09-18T05:11:49;4.90;;;1.58;;
59824;SDS011;45703;50.898;6.054;2023-09-18T05:14:17;6.63;;;1.70;;
59824;SDS011;45703;50.898;6.054;2023-09-18T05:16:42;6.78;;;1.90;;
59824;SDS011;45703;50.898;6.054;2023-09-18T05:19:07;8.10;;;1.90;;
59824;SDS011;45703;50.898;6.054;2023-09-18T05:21:33;8.55;;;1.70;;
59824;SDS011;45703;50.898;6.054;2023-09-18T05:23:58;6.90;;;1.60;;
59824;SDS011;45703;50.898;6.054;2023-09-18T05:26:26;6.85;;;1.75;;
59824;SDS011;45703;50.898;6.054;2023-09-18T05:28:53;5.97;;;1.85;;
59824;SDS011;45703;50.898;6.054;2023-09-18T05:31:20;7.30;;;1.90;;
59824;SDS011;45703;50.898;6.054;2023-09-18T05:33:45;8.60;;;1.63;;
59824;SDS011;45703;50.898;6.054;2023-09-18T05:36:12;7.60;;;1.75;;
59824;SDS011;45703;50.898;6.054;2023-09-18T05:38:38;6.93;;;2.15;;
59824;SDS011;45703;50.898;6.054;2023-09-18T05:41:03;5.72;;;2.17;;
59824;SDS011;45703;50.898;6.054;2023-09-18T05:43:30;5.85;;;1.92;;
59824;SDS011;45703;50.898;6.054;2023-09-18T05:45:56;6.50;;;1.85;;
59824;SDS011;45703;50.898;6.054;2023-09-18T05:48:21;5.57;;;1.75;;
59824;SDS011;45703;50.898;6.054;2023-09-18T05:50:49;6.55;;;1.67;;
59824;SDS011;45703;50.898;6.054;2023-09-18T05:53:18;7.18;;;1.85;;
59824;SDS011;45703;50.898;6.054;2023-09-18T05:55:46;6.45;;;1.98;;
59824;SDS011;45703;50.898;6.054;2023-09-18T05:58:12;5.35;;;1.55;;
59824;SDS011;45703;50.898;6.054;2023-09-18T06:00:39;7.15;;;1.80;;
59824;SDS011;45703;50.898;6.054;2023-09-18T06:03:06;4.82;;;1.48;;
59824;SDS011;45703;50.898;6.054;2023-09-18T06:05:32;8.25;;;1.90;;
59824;SDS011;45703;50.898;6.054;2023-09-18T06:07:59;6.97;;;2.13;;
59824;SDS011;45703;50.898;6.054;2023-09-18T06:10:25;6.80;;;2.15;;
59824;SDS011;45703;50.898;6.054;2023-09-18T06:12:50;6.93;;;1.77;;
59824;SDS011;45703;50.898;6.054;2023-09-18T06:15:19;6.10;;;1.50;;
59824;SDS011;45703;50.898;6.054;2023-09-18T06:17:46;6.43;;;1.90;;
59824;SDS011;45703;50.898;6.054;2023-09-18T06:20:12;6.05;;;1.50;;
59824;SDS011;45703;50.898;6.054;2023-09-18T06:22:41;5.80;;;1.77;;
59824;SDS011;45703;50.898;6.054;2023-09-18T06:25:07;6.82;;;1.98;;
59824;SDS011;45703;50.898;6.054;2023-09-18T06:27:35;6.32;;;1.70;;
59824;SDS011;45703;50.898;6.054;2023-09-18T06:30:01;5.68;;;1.55;;
59824;SDS011;45703;50.898;6.054;2023-09-18T06:32:27;7.18;;;1.70;;
59824;SDS011;45703;50.898;6.054;2023-09-18T06:34:53;6.28;;;1.42;;
59824;SDS011;45703;50.898;6.054;2023-09-18T06:37:18;6.10;;;1.67;;
59824;SDS011;45703;50.898;6.054;2023-09-18T06:39:46;7.97;;;1.70;;
59824;SDS011;45703;50.898;6.054;2023-09-18T06:42:11;5.45;;;1.50;;
59824;SDS011;45703;50.898;6.054;2023-09-18T06:44:39;6.65;;;1.60;;
59824;SDS011;45703;50.898;6.054;2023-09-18T06:47:04;6.05;;;1.50;;
59824;SDS011;45703;50.898;6.054;2023-09-18T06:49:30;7.22;;;1.67;;
59824;SDS011;45703;50.898;6.054;2023-09-18T06:51:57;5.13;;;1.52;;
59824;SDS011;45703;50.898;6.054;2023-09-18T06:54:31;8.55;;;1.70;;
59824;SDS011;45703;50.898;6.054;2023-09-18T06:56:56;6.03;;;1.50;;
59824;SDS011;45703;50.898;6.054;2023-09-18T06:59:22;8.25;;;1.80;;
59824;SDS011;45703;50.898;6.054;2023-09-18T07:01:47;9.45;;;1.83;;
59824;SDS011;45703;50.898;6.054;2023-09-18T07:04:15;5.85;;;1.30;;
59824;SDS011;45703;50.898;6.054;2023-09-18T07:06:43;7.15;;;1.65;;
59824;SDS011;45703;50.898;6.054;2023-09-18T07:09:08;7.60;;;1.60;;
59824;SDS011;45703;50.898;6.054;2023-09-18T07:11:37;7.15;;;1.50;;
59824;SDS011;45703;50.898;6.054;2023-09-18T07:14:02;5.70;;;1.60;;
59824;SDS011;45703;50.898;6.054;2023-09-18T07:16:31;7.05;;;1.45;;
59824;SDS011;45703;50.898;6.054;2023-09-18T07:18:57;5.10;;;1.38;;
59824;SDS011;45703;50.898;6.054;2023-09-18T07:21:22;6.40;;;1.80;;
59824;SDS011;45703;50.898;6.054;2023-09-18T07:23:47;6.53;;;1.38;;
59824;SDS011;45703;50.898;6.054;2023-09-18T07:26:13;5.60;;;1.67;;
59824;SDS011;45703;50.898;6.054;2023-09-18T07:28:38;4.30;;;1.38;;
59824;SDS011;45703;50.898;6.054;2023-09-18T07:31:08;6.63;;;1.70;;
59824;SDS011;45703;50.898;6.054;2023-09-18T07:33:34;7.47;;;1.60;;
59824;SDS011;45703;50.898;6.054;2023-09-18T07:36:00;7.07;;;1.45;;
59824;SDS011;45703;50.898;6.054;2023-09-18T07:38:25;7.35;;;1.67;;
59824;SDS011;45703;50.898;6.054;2023-09-18T07:40:54;6.55;;;1.40;;
59824;SDS011;45703;50.898;6.054;2023-09-18T07:43:19;5.97;;;1.52;;
59824;SDS011;45703;50.898;6.054;2023-09-18T07:45:45;6.32;;;1.60;;
59824;SDS011;45703;50.898;6.054;2023-09-18T07:48:10;8.05;;;1.40;;
59824;SDS011;45703;50.898;6.054;2023-09-18T07:50:36;5.55;;;1.65;;
59824;SDS011;45703;50.898;6.054;2023-09-18T07:53:01;6.55;;;1.75;;
59824;SDS011;45703;50.898;6.054;2023-09-18T07:55:27;5.20;;;1.45;;
59824;SDS011;45703;50.898;6.054;2023-09-18T07:57:54;6.47;;;1.40;;
59824;SDS011;45703;50.898;6.054;2023-09-18T08:00:20;6.35;;;1.40;;
59824;SDS011;45703;50.898;6.054;2023-09-18T08:02:47;5.45;;;1.30;;
59824;SDS011;45703;50.898;6.054;2023-09-18T08:05:15;6.90;;;1.60;;
59824;SDS011;45703;50.898;6.054;2023-09-18T08:07:43;5.80;;;1.42;;
59824;SDS011;45703;50.898;6.054;2023-09-18T08:10:09;5.18;;;1.55;;
59824;SDS011;45703;50.898;6.054;2023-09-18T08:12:35;7.20;;;1.60;;
59824;SDS011;45703;50.898;6.054;2023-09-18T08:15:01;6.60;;;1.80;;
59824;SDS011;45703;50.898;6.054;2023-09-18T08:17:27;6.30;;;1.52;;
59824;SDS011;45703;50.898;6.054;2023-09-18T08:19:56;4.82;;;1.60;;
59824;SDS011;45703;50.898;6.054;2023-09-18T08:22:23;5.72;;;1.48;;
59824;SDS011;45703;50.898;6.054;2023-09-18T08:24:48;6.50;;;1.73;;
59824;SDS011;45703;50.898;6.054;2023-09-18T08:27:17;4.70;;;1.50;;
59824;SDS011;45703;50.898;6.054;2023-09-18T08:29:44;5.40;;;1.60;;
59824;SDS011;45703;50.898;6.054;2023-09-18T08:32:10;7.43;;;1.85;;
59824;SDS011;45703;50.898;6.054;2023-09-18T08:34:36;5.68;;;1.55;;
59824;SDS011;45703;50.898;6.054;2023-09-18T08:37:02;7.18;;;1.63;;
59824;SDS011;45703;50.898;6.054;2023-09-18T08:39:29;5.38;;;1.25;;
59824;SDS011;45703;50.898;6.054;2023-09-18T08:41:58;6.22;;;1.52;;
59824;SDS011;45703;50.898;6.054;2023-09-18T08:44:27;5.47;;;1.70;;
59824;SDS011;45703;50.898;6.054;2023-09-18T08:46:53;6.80;;;1.80;;
59824;SDS011;45703;50.898;6.054;2023-09-18T08:49:20;7.43;;;1.70;;
59824;SDS011;45703;50.898;6.054;2023-09-18T08:51:48;4.95;;;1.50;;
59824;SDS011;45703;50.898;6.054;2023-09-18T08:54:15;5.95;;;1.60;;
59824;SDS011;45703;50.898;6.054;2023-09-18T08:56:40;5.38;;;1.35;;
59824;SDS011;45703;50.898;6.054;2023-09-18T08:59:06;5.30;;;1.40;;
59824;SDS011;45703;50.898;6.054;2023-09-18T09:01:31;5.00;;;1.50;;
59824;SDS011;45703;50.898;6.054;2023-09-18T09:03:57;5.63;;;1.60;;
59824;SDS011;45703;50.898;6.054;2023-09-18T09:06:22;6.30;;;1.70;;
59824;SDS011;45703;50.898;6.054;2023-09-18T09:08:48;5.45;;;1.50;;
59824;SDS011;45703;50.898;6.054;2023-09-18T09:11:15;5.40;;;1.38;;
59824;SDS011;45703;50.898;6.054;2023-09-18T09:13:40;6.32;;;1.50;;
59824;SDS011;45703;50.898;6.054;2023-09-18T09:16:05;6.63;;;1.83;;
59824;SDS011;45703;50.898;6.054;2023-09-18T09:18:37;5.40;;;1.70;;
59824;SDS011;45703;50.898;6.054;2023-09-18T09:21:13;6.65;;;1.67;;
59824;SDS011;45703;50.898;6.054;2023-09-18T09:26:18;6.75;;;1.85;;
59824;SDS011;45703;50.898;6.054;2023-09-18T09:28:44;5.13;;;1.58;;
59824;SDS011;45703;50.898;6.054;2023-09-18T09:31:11;6.13;;;1.60;;
59824;SDS011;45703;50.898;6.054;2023-09-18T09:33:37;5.10;;;1.70;;
59824;SDS011;45703;50.898;6.054;2023-09-18T09:36:06;5.30;;;1.75;;
59824;SDS011;45703;50.898;6.054;2023-09-18T09:38:32;5.68;;;1.90;;
59824;SDS011;45703;50.898;6.054;2023-09-18T09:40:59;5.78;;;1.73;;
59824;SDS011;45703;50.898;6.054;2023-09-18T09:43:26;5.65;;;1.67;;
59824;SDS011;45703;50.898;6.054;2023-09-18T09:46:02;6.32;;;1.58;;
59824;SDS011;45703;50.898;6.054;2023-09-18T09:48:29;5.97;;;1.65;;
59824;SDS011;45703;50.898;6.054;2023-09-18T09:50:58;6.07;;;1.80;;
59824;SDS011;45703;50.898;6.054;2023-09-18T09:53:43;7.60;;;2.00;;
59824;SDS011;45703;50.898;6.054;2023-09-18T09:56:12;6.22;;;1.83;;
59824;SDS011;45703;50.898;6.054;2023-09-18T09:58:37;4.93;;;1.50;;
59824;SDS011;45703;50.898;6.054;2023-09-18T10:01:19;6.72;;;2.03;;
59824;SDS011;45703;50.898;6.054;2023-09-18T10:03:45;5.18;;;1.65;;
59824;SDS011;45703;50.898;6.054;2023-09-18T10:06:12;6.47;;;2.00;;
59824;SDS011;45703;50.898;6.054;2023-09-18T10:08:38;6.75;;;2.10;;
59824;SDS011;45703;50.898;6.054;2023-09-18T10:11:06;5.80;;;1.80;;
59824;SDS011;45703;50.898;6.054;2023-09-18T10:16:15;5.78;;;1.88;;
59824;SDS011;45703;50.898;6.054;2023-09-18T10:18:55;6.00;;;1.80;;
59824;SDS011;45703;50.898;6.054;2023-09-18T10:29:15;6.15;;;1.90;;
59824;SDS011;45703;50.898;6.054;2023-09-18T10:31:43;6.07;;;1.90;;
59824;SDS011;45703;50.898;6.054;2023-09-18T10:34:12;5.90;;;1.52;;
59824;SDS011;45703;50.898;6.054;2023-09-18T10:36:41;6.35;;;1.88;;
59824;SDS011;45703;50.898;6.054;2023-09-18T10:39:06;7.43;;;2.03;;
59824;SDS011;45703;50.898;6.054;2023-09-18T10:41:39;6.45;;;2.33;;
59824;SDS011;45703;50.898;6.054;2023-09-18T10:44:06;5.50;;;2.03;;
59824;SDS011;45703;50.898;6.054;2023-09-18T10:46:32;6.60;;;2.05;;
59824;SDS011;45703;50.898;6.054;2023-09-18T10:48:59;5.60;;;2.00;;
59824;SDS011;45703;50.898;6.054;2023-09-18T10:51:26;6.95;;;2.08;;
59824;SDS011;45703;50.898;6.054;2023-09-18T10:53:53;5.90;;;1.90;;
59824;SDS011;45703;50.898;6.054;2023-09-18T10:56:21;5.78;;;1.88;;
59824;SDS011;45703;50.898;6.054;2023-09-18T10:58:47;5.80;;;1.80;;
59824;SDS011;45703;50.898;6.054;2023-09-18T11:01:20;6.20;;;2.10;;
59824;SDS011;45703;50.898;6.054;2023-09-18T11:03:49;7.45;;;2.28;;
59824;SDS011;45703;50.898;6.054;2023-09-18T11:06:15;6.20;;;2.28;;
59824;SDS011;45703;50.898;6.054;2023-09-18T11:08:46;6.47;;;1.90;;
59824;SDS011;45703;50.898;6.054;2023-09-18T11:11:35;5.85;;;2.08;;
59824;SDS011;45703;50.898;6.054;2023-09-18T11:14:00;5.90;;;1.92;;
59824;SDS011;45703;50.898;6.054;2023-09-18T11:18:53;7.00;;;2.00;;
59824;SDS011;45703;50.898;6.054;2023-09-18T11:21:33;6.38;;;2.03;;
59824;SDS011;45703;50.898;6.054;2023-09-18T11:24:06;5.38;;;1.70;;
59824;SDS011;45703;50.898;6.054;2023-09-18T11:26:37;5.90;;;2.00;;
59824;SDS011;45703;50.898;6.054;2023-09-18T11:29:07;5.97;;;1.83;;
59824;SDS011;45703;50.898;6.054;2023-09-18T11:34:14;6.13;;;1.80;;
59824;SDS011;45703;50.898;6.054;2023-09-18T11:36:56;5.72;;;1.90;;
59824;SDS011;45703;50.898;6.054;2023-09-18T11:39:36;5.57;;;1.80;;
59824;SDS011;45703;50.898;6.054;2023-09-18T11:42:09;5.85;;;1.92;;
59824;SDS011;45703;50.898;6.054;2023-09-18T11:44:39;5.35;;;1.90;;
59824;SDS011;45703;50.898;6.054;2023-09-18T11:47:11;6.13;;;1.77;;
59824;SDS011;45703;50.898;6.054;2023-09-18T11:49:50;6.43;;;1.90;;
59824;SDS011;45703;50.898;6.054;2023-09-18T11:52:21;6.50;;;1.92;;
59824;SDS011;45703;50.898;6.054;2023-09-18T11:54:47;6.22;;;1.80;;
59824;SDS011;45703;50.898;6.054;2023-09-18T11:57:13;5.70;;;2.00;;
59824;SDS011;45703;50.898;6.054;2023-09-18T11:59:42;6.18;;;2.00;;
59824;SDS011;45703;50.898;6.054;2023-09-18T12:02:28;5.07;;;1.75;;
59824;SDS011;45703;50.898;6.054;2023-09-18T12:05:21;5.00;;;1.60;;
59824;SDS011;45703;50.898;6.054;2023-09-18T12:07:51;4.88;;;1.50;;
59824;SDS011;45703;50.898;6.054;2023-09-18T12:10:17;8.35;;;2.13;;
59824;SDS011;45703;50.898;6.054;2023-09-18T12:12:45;5.38;;;1.52;;
59824;SDS011;45703;50.898;6.054;2023-09-18T12:15:12;6.22;;;1.88;;
59824;SDS011;45703;50.898;6.054;2023-09-18T12:17:39;4.97;;;1.65;;
59824;SDS011;45703;50.898;6.054;2023-09-18T12:20:04;6.75;;;1.80;;
59824;SDS011;45703;50.898;6.054;2023-09-18T12:22:31;5.63;;;1.75;;
59824;SDS011;45703;50.898;6.054;2023-09-18T12:25:11;5.80;;;2.10;;
59824;SDS011;45703;50.898;6.054;2023-09-18T12:27:39;5.20;;;1.80;;
59824;SDS011;45703;50.898;6.054;2023-09-18T12:30:05;6.18;;;2.03;;
59824;SDS011;45703;50.898;6.054;2023-09-18T12:32:31;6.35;;;1.95;;
59824;SDS011;45703;50.898;6.054;2023-09-18T12:34:57;5.38;;;1.80;;
59824;SDS011;45703;50.898;6.054;2023-09-18T12:37:23;5.70;;;1.75;;
59824;SDS011;45703;50.898;6.054;2023-09-18T12:39:49;6.35;;;1.98;;
59824;SDS011;45703;50.898;6.054;2023-09-18T12:42:17;5.85;;;1.77;;
59824;SDS011;45703;50.898;6.054;2023-09-18T12:44:45;6.28;;;1.80;;
59824;SDS011;45703;50.898;6.054;2023-09-18T12:47:12;5.15;;;1.90;;
59824;SDS011;45703;50.898;6.054;2023-09-18T12:49:38;6.18;;;1.95;;
59824;SDS011;45703;50.898;6.054;2023-09-18T12:52:05;8.63;;;1.90;;
59824;SDS011;45703;50.898;6.054;2023-09-18T12:57:19;6.97;;;1.90;;
59824;SDS011;45703;50.898;6.054;2023-09-18T12:59:44;5.57;;;1.70;;
59824;SDS011;45703;50.898;6.054;2023-09-18T13:02:12;5.55;;;1.70;;
59824;SDS011;45703;50.898;6.054;2023-09-18T13:04:38;5.43;;;1.70;;
59824;SDS011;45703;50.898;6.054;2023-09-18T13:07:09;4.85;;;1.50;;
59824;SDS011;45703;50.898;6.054;2023-09-18T13:09:37;6.43;;;1.83;;
59824;SDS011;45703;50.898;6.054;2023-09-18T13:12:02;5.80;;;1.75;;
59824;SDS011;45703;50.898;6.054;2023-09-18T13:14:28;5.85;;;1.95;;
59824;SDS011;45703;50.898;6.054;2023-09-18T13:17:00;6.15;;;2.10;;
59824;SDS011;45703;50.898;6.054;2023-09-18T13:19:25;5.57;;;1.70;;
59824;SDS011;45703;50.898;6.054;2023-09-18T13:21:51;5.43;;;1.70;;
59824;SDS011;45703;50.898;6.054;2023-09-18T13:26:52;5.40;;;1.88;;
59824;SDS011;45703;50.898;6.054;2023-09-18T13:29:18;6.00;;;1.80;;
59824;SDS011;45703;50.898;6.054;2023-09-18T13:31:44;6.25;;;2.28;;
59824;SDS011;45703;50.898;6.054;2023-09-18T13:34:09;5.90;;;2.20;;
59824;SDS011;45703;50.898;6.054;2023-09-18T13:36:35;5.55;;;1.75;;
59824;SDS011;45703;50.898;6.054;2023-09-18T13:39:00;5.93;;;1.92;;
59824;SDS011;45703;50.898;6.054;2023-09-18T13:41:25;6.05;;;1.80;;
59824;SDS011;45703;50.898;6.054;2023-09-18T13:43:51;7.03;;;1.80;;
59824;SDS011;45703;50.898;6.054;2023-09-18T13:46:20;6.15;;;1.90;;
59824;SDS011;45703;50.898;6.054;2023-09-18T13:48:46;5.60;;;1.90;;
59824;SDS011;45703;50.898;6.054;2023-09-18T13:51:12;5.18;;;1.85;;
59824;SDS011;45703;50.898;6.054;2023-09-18T13:53:38;5.53;;;1.73;;
59824;SDS011;45703;50.898;6.054;2023-09-18T13:56:06;7.32;;;1.90;;
59824;SDS011;45703;50.898;6.054;2023-09-18T13:58:31;7.60;;;1.80;;
59824;SDS011;45703;50.898;6.054;2023-09-18T14:00:57;7.00;;;1.80;;
59824;SDS011;45703;50.898;6.054;2023-09-18T14:03:22;5.75;;;1.75;;
59824;SDS011;45703;50.898;6.054;2023-09-18T14:05:48;6.28;;;1.90;;
59824;SDS011;45703;50.898;6.054;2023-09-18T14:08:14;5.63;;;1.80;;
59824;SDS011;45703;50.898;6.054;2023-09-18T14:10:40;5.57;;;1.67;;
59824;SDS011;45703;50.898;6.054;2023-09-18T14:13:07;5.13;;;1.70;;
59824;SDS011;45703;50.898;6.054;2023-09-18T14:15:33;5.78;;;1.70;;
59824;SDS011;45703;50.898;6.054;2023-09-18T14:17:58;5.55;;;1.45;;
59824;SDS011;45703;50.898;6.054;2023-09-18T14:20:24;6.30;;;1.63;;
59824;SDS011;45703;50.898;6.054;2023-09-18T14:22:49;5.38;;;1.58;;
59824;SDS011;45703;50.898;6.054;2023-09-18T14:25:15;7.03;;;1.90;;
59824;SDS011;45703;50.898;6.054;2023-09-18T14:27:41;5.43;;;1.58;;
59824;SDS011;45703;50.898;6.054;2023-09-18T14:30:07;6.00;;;1.90;;
59824;SDS011;45703;50.898;6.054;2023-09-18T14:32:33;5.45;;;1.60;;
59824;SDS011;45703;50.898;6.054;2023-09-18T14:35:01;6.18;;;1.73;;
59824;SDS011;45703;50.898;6.054;2023-09-18T14:37:28;6.35;;;2.03;;
59824;SDS011;45703;50.898;6.054;2023-09-18T14:39:54;5.45;;;1.92;;
59824;SDS011;45703;50.898;6.054;2023-09-18T14:42:19;6.32;;;1.80;;
59824;SDS011;45703;50.898;6.054;2023-09-18T14:44:45;7.25;;;1.67;;
59824;SDS011;45703;50.898;6.054;2023-09-18T14:47:11;6.15;;;1.63;;
59824;SDS011;45703;50.898;6.054;2023-09-18T14:49:37;6.18;;;1.58;;
59824;SDS011;45703;50.898;6.054;2023-09-18T14:52:04;5.30;;;1.70;;
59824;SDS011;45703;50.898;6.054;2023-09-18T14:54:34;6.43;;;2.03;;
59824;SDS011;45703;50.898;6.054;2023-09-18T14:56:59;6.25;;;1.90;;
59824;SDS011;45703;50.898;6.054;2023-09-18T14:59:26;6.38;;;1.73;;
59824;SDS011;45703;50.898;6.054;2023-09-18T15:01:51;7.28;;;1.88;;
59824;SDS011;45703;50.898;6.054;2023-09-18T15:04:17;5.60;;;1.88;;
59824;SDS011;45703;50.898;6.054;2023-09-18T15:06:44;6.05;;;1.70;;
59824;SDS011;45703;50.898;6.054;2023-09-18T15:09:10;5.10;;;1.55;;
59824;SDS011;45703;50.898;6.054;2023-09-18T15:11:35;7.50;;;2.10;;
59824;SDS011;45703;50.898;6.054;2023-09-18T15:14:01;6.78;;;1.70;;